Roebourne, Australia
Current Conditions -  °F | °C
As of 6:00 AM on Monday 26 Jan 2015 (Local Time) from YPPD Reporting Station
Broken Clouds Broken Clouds  
Wind Chill: 82°   Ceiling: 18000
Heat Index: 91°   Visibility: 6mi
Dew Point: 77°   Wind: 6mph
Humidity: 84%   Direction: 100°E
Pressure: 29.77"   Gusts: NA
Location:  20.78°S, 117.15°E
Report Text: YPPD 252200Z 10005KT 9999 SCT021 SCT038 BKN180 28/25 Q1008
Loading
Personal Weather Stations






























Interactive Weather Map New forecast layout! Learn more

10-Day Weather Forecast

Advertisements
Track Severe Weather on mobile